Time;durP1;ratioP1;P1;durP2;ratioP2;P2;SDS_P1;SDS_P2;PMS_P1;PMS_P2;Temp;Humidity;BMP_temperature;BMP_pressure;BME280_temperature;BME280_humidity;BME280_pressure;Samples;Min_cycle;Max_cycle;Signal;HPM_P1;HPM_P2
2021/03/21 00:01:37;;;;;;;16.57;12.07;;;5.90;99.90;;;;;;4784820;29;20392;-84
2021/03/21 00:04:05;;;;;;;14.80;11.87;;;5.90;99.90;;;;;;4786087;29;20405;-84
2021/03/21 00:06:58;;;;;;;17.27;13.40;;;5.80;99.90;;;;;;4801223;29;20417;-83
2021/03/21 00:09:52;;;;;;;15.97;11.23;;;5.80;99.90;;;;;;4798144;29;20440;-84
2021/03/21 00:12:44;;;;;;;16.20;11.53;;;5.80;99.90;;;;;;4768509;29;20410;-85
2021/03/21 00:15:13;;;;;;;14.60;10.27;;;5.80;99.90;;;;;;4731493;30;20936;-85
2021/03/21 00:17:39;;;;;;;16.20;10.93;;;5.90;99.90;;;;;;4761860;30;20414;-84
2021/03/21 00:20:08;;;;;;;16.53;11.23;;;5.80;99.90;;;;;;4749169;30;20789;-83
2021/03/21 00:22:35;;;;;;;14.90;11.43;;;5.90;99.90;;;;;;4794820;29;20400;-84
2021/03/21 00:25:00;;;;;;;18.60;12.83;;;5.90;99.90;;;;;;4788558;29;20406;-83
2021/03/21 00:27:26;;;;;;;15.33;11.70;;;5.90;99.90;;;;;;4804067;29;21092;-84
2021/03/21 00:30:21;;;;;;;15.47;12.90;;;5.90;99.90;;;;;;4800845;29;20418;-83
2021/03/21 00:33:19;;;;;;;19.20;12.50;;;5.90;99.90;;;;;;4758315;29;20401;-84
2021/03/21 00:36:11;;;;;;;16.90;13.20;;;5.90;99.90;;;;;;4715793;30;20434;-84
2021/03/21 00:38:40;;;;;;;19.83;12.03;;;5.90;99.90;;;;;;4696533;30;20473;-83
2021/03/21 00:41:35;;;;;;;15.67;12.20;;;5.90;99.90;;;;;;4712165;30;20410;-84
2021/03/21 00:44:29;;;;;;;17.67;12.03;;;5.90;99.90;;;;;;4692424;30;20497;-84
2021/03/21 00:46:56;;;;;;;16.07;12.90;;;5.80;99.90;;;;;;4692442;30;20396;-84
2021/03/21 00:49:23;;;;;;;21.07;14.10;;;5.90;99.90;;;;;;4712090;30;20530;-84
2021/03/21 00:51:50;;;;;;;22.03;14.33;;;5.80;99.90;;;;;;4758133;29;20555;-84
2021/03/21 00:54:39;;;;;;;18.40;12.90;;;5.80;99.90;;;;;;4779232;29;20912;-84
2021/03/21 00:57:06;;;;;;;17.50;12.53;;;5.90;99.90;;;;;;4761423;30;20443;-84
2021/03/21 00:59:33;;;;;;;18.90;14.57;;;5.90;99.90;;;;;;4761095;30;20541;-84
2021/03/21 01:01:59;;;;;;;20.93;16.20;;;5.90;99.90;;;;;;4732125;30;21223;-84
2021/03/21 01:04:25;;;;;;;21.70;13.33;;;5.80;99.90;;;;;;4757860;30;20441;-83
2021/03/21 01:06:52;;;;;;;23.97;15.30;;;5.80;99.90;;;;;;4755994;30;20565;-84
2021/03/21 01:09:47;;;;;;;22.30;15.23;;;5.70;99.90;;;;;;4754851;29;20923;-83
2021/03/21 01:12:13;;;;;;;23.93;16.40;;;5.70;99.90;;;;;;4804073;29;20440;-83
2021/03/21 01:14:40;;;;;;;21.77;16.80;;;5.60;99.90;;;;;;4838475;29;20420;-83
2021/03/21 01:17:06;;;;;;;19.60;14.30;;;5.60;99.90;;;;;;4841296;29;20414;-83
2021/03/21 01:19:33;;;;;;;23.93;14.60;;;5.60;99.90;;;;;;4833581;29;21352;-83
2021/03/21 01:22:00;;;;;;;23.13;15.67;;;5.60;99.90;;;;;;4850814;29;20442;-84
2021/03/21 01:24:27;;;;;;;20.17;16.07;;;5.60;99.90;;;;;;4922349;28;20360;-83
2021/03/21 01:26:53;;;;;;;22.00;14.80;;;5.60;99.90;;;;;;4923929;28;20460;-85
2021/03/21 01:29:21;;;;;;;21.53;14.93;;;5.50;99.90;;;;;;4937281;28;20433;-83
2021/03/21 01:32:23;;;;;;;22.70;15.40;;;5.40;99.90;;;;;;4937358;28;20321;-83
2021/03/21 01:34:51;;;;;;;25.80;14.50;;;5.50;99.90;;;;;;4921130;28;20400;-83
2021/03/21 01:37:18;;;;;;;23.77;14.80;;;5.50;99.90;;;;;;4945531;28;20472;-83
2021/03/21 01:39:44;;;;;;;22.50;15.17;;;5.50;99.90;;;;;;4947433;28;20347;-84
2021/03/21 01:42:41;;;;;;;29.30;15.13;;;5.50;99.90;;;;;;4912346;28;20537;-82
2021/03/21 01:46:04;;;;;;;23.13;12.20;;;5.50;99.90;;;;;;4921121;29;21286;-84
2021/03/21 01:48:45;;;;;;;18.33;12.10;;;5.50;99.90;;;;;;4935614;28;20416;-83
2021/03/21 01:51:20;;;;;;;26.97;12.43;;;5.50;99.90;;;;;;4944191;28;20676;-83
2021/03/21 01:53:50;;;;;;;29.23;16.83;;;5.50;99.90;;;;;;4961811;28;20391;-83
2021/03/21 01:56:15;;;;;;;28.13;15.80;;;5.60;99.90;;;;;;4961213;28;20410;-83
2021/03/21 01:58:45;;;;;;;29.33;16.90;;;5.60;99.90;;;;;;4957777;28;20407;-84
2021/03/21 02:01:17;;;;;;;30.57;18.03;;;5.60;99.90;;;;;;4955412;28;20235;-83
2021/03/21 02:03:45;;;;;;;42.40;21.37;;;5.60;99.90;;;;;;4944235;28;20486;-83
2021/03/21 02:06:13;;;;;;;40.00;24.00;;;5.70;99.90;;;;;;4943471;28;20430;-83
2021/03/21 02:08:56;;;;;;;44.83;25.40;;;5.70;99.90;;;;;;4958957;28;20413;-83
2021/03/21 02:11:46;;;;;;;43.10;27.03;;;5.80;99.90;;;;;;4983207;28;20409;-84
2021/03/21 02:14:26;;;;;;;45.70;29.83;;;5.70;99.90;;;;;;4974715;28;20364;-83
2021/03/21 02:17:16;;;;;;;42.53;25.30;;;5.70;99.90;;;;;;4994913;28;20413;-84
2021/03/21 02:20:12;;;;;;;44.73;26.57;;;5.70;99.90;;;;;;5025339;28;20396;-83
2021/03/21 02:22:47;;;;;;;47.33;27.93;;;5.70;99.90;;;;;;5064920;28;20380;-83
2021/03/21 02:25:56;;;;;;;46.97;26.03;;;5.70;99.90;;;;;;5095184;28;20471;-84
2021/03/21 02:28:31;;;;;;;42.10;25.47;;;5.70;99.90;;;;;;5077708;28;20345;-84
2021/03/21 02:31:04;;;;;;;40.60;24.87;;;5.60;99.90;;;;;;5074838;28;20388;-83
2021/03/21 02:33:56;;;;;;;40.23;24.20;;;5.60;99.90;;;;;;5078026;28;20375;-83
2021/03/21 02:36:28;;;;;;;39.17;24.20;;;5.60;99.90;;;;;;5018079;28;20389;-84
2021/03/21 02:39:06;;;;;;;41.07;25.13;;;5.60;99.90;;;;;;5017515;28;20355;-84
2021/03/21 02:41:43;;;;;;;43.23;24.87;;;5.70;99.90;;;;;;5017174;28;20401;-84
2021/03/21 02:44:22;;;;;;;52.73;27.63;;;5.60;99.90;;;;;;5019122;28;21024;-84
2021/03/21 02:46:58;;;;;;;47.43;28.07;;;5.50;99.90;;;;;;5004047;28;20386;-84
2021/03/21 02:49:34;;;;;;;45.07;25.87;;;5.60;99.90;;;;;;5021234;28;20434;-84
2021/03/21 02:52:12;;;;;;;52.30;29.23;;;5.60;99.90;;;;;;5003332;28;20409;-84
2021/03/21 02:54:52;;;;;;;56.27;28.53;;;5.60;99.90;;;;;;5001400;28;20409;-85
2021/03/21 02:57:26;;;;;;;48.60;28.53;;;5.60;99.90;;;;;;5030377;28;20396;-84
2021/03/21 02:59:59;;;;;;;51.63;30.10;;;5.60;99.90;;;;;;5032253;28;20850;-84
2021/03/21 03:03:00;;;;;;;61.23;31.93;;;5.60;99.90;;;;;;5000180;28;20372;-84
2021/03/21 03:05:47;;;;;;;54.03;30.83;;;5.60;99.90;;;;;;4981795;28;20413;-85
2021/03/21 03:08:32;;;;;;;59.07;30.37;;;5.60;99.90;;;;;;4996445;28;20457;-85
2021/03/21 03:11:06;;;;;;;49.47;26.50;;;5.60;99.90;;;;;;4996501;28;20369;-84
2021/03/21 03:13:40;;;;;;;60.47;30.10;;;5.60;99.90;;;;;;4998716;28;20487;-85
2021/03/21 03:16:35;;;;;;;53.10;30.50;;;5.60;99.90;;;;;;5037613;28;20414;-85
2021/03/21 03:19:03;;;;;;;51.47;31.47;;;5.60;99.90;;;;;;5038399;28;20426;-85
2021/03/21 03:21:39;;;;;;;48.03;27.90;;;5.60;99.90;;;;;;5057173;28;20422;-85
2021/03/21 03:24:40;;;;;;;51.30;28.10;;;5.70;99.90;;;;;;5037881;28;20411;-85
2021/03/21 03:27:06;;;;;;;54.87;31.47;;;5.60;99.90;;;;;;5026799;28;20363;-84
2021/03/21 03:29:38;;;;;;;52.80;30.27;;;5.60;99.90;;;;;;5024851;28;20413;-84
2021/03/21 03:32:11;;;;;;;59.47;28.60;;;5.60;99.90;;;;;;5025836;28;20191;-84
2021/03/21 03:34:42;;;;;;;46.27;27.87;;;5.60;99.90;;;;;;5023361;28;20408;-85
2021/03/21 03:37:08;;;;;;;50.33;29.80;;;5.60;99.90;;;;;;5047335;28;21272;-85
2021/03/21 03:39:37;;;;;;;49.47;29.80;;;5.60;99.90;;;;;;5012715;28;20436;-85
2021/03/21 03:42:10;;;;;;;54.07;29.20;;;5.60;99.90;;;;;;5080083;28;20216;-84
2021/03/21 03:44:48;;;;;;;56.27;27.27;;;5.60;99.90;;;;;;5097908;28;20948;-84
2021/03/21 03:47:16;;;;;;;52.57;30.47;;;5.60;99.90;;;;;;5084131;28;20728;-85
2021/03/21 03:50:27;;;;;;;62.30;28.40;;;5.60;99.90;;;;;;5083758;28;20410;-85
2021/03/21 03:53:17;;;;;;;50.47;28.90;;;5.70;99.90;;;;;;5056630;28;20483;-83
2021/03/21 03:55:44;;;;;;;48.20;26.67;;;5.70;99.90;;;;;;5042429;28;20404;-83
2021/03/21 03:58:32;;;;;;;49.70;26.20;;;5.70;99.90;;;;;;5027307;28;20449;-83
2021/03/21 04:01:15;;;;;;;46.93;26.43;;;5.70;99.90;;;;;;4984421;28;20432;-84
2021/03/21 04:04:02;;;;;;;36.80;22.80;;;5.70;99.90;;;;;;5027549;28;20350;-84
2021/03/21 04:06:35;;;;;;;31.73;18.30;;;5.70;99.90;;;;;;5026715;28;21190;-83
2021/03/21 04:09:28;;;;;;;24.77;13.97;;;5.60;99.90;;;;;;5007207;28;20416;-83
2021/03/21 04:12:10;;;;;;;22.63;13.93;;;5.60;99.90;;;;;;5022842;28;20462;-84
2021/03/21 04:14:41;;;;;;;23.70;13.33;;;5.60;99.90;;;;;;5011477;28;21375;-84
2021/03/21 04:17:18;;;;;;;19.80;12.70;;;5.60;99.90;;;;;;5040598;28;20386;-84
2021/03/21 04:19:59;;;;;;;16.57;12.27;;;5.60;99.90;;;;;;5011956;28;20455;-84
2021/03/21 04:22:30;;;;;;;23.03;13.60;;;5.50;99.90;;;;;;5044690;28;21367;-84
2021/03/21 04:25:16;;;;;;;17.70;11.37;;;5.50;99.90;;;;;;5067891;28;20387;-85
2021/03/21 04:28:04;;;;;;;22.50;13.13;;;5.50;99.90;;;;;;5063780;28;20393;-85
2021/03/21 04:30:36;;;;;;;17.43;12.00;;;5.50;99.90;;;;;;5081081;28;20577;-85
2021/03/21 04:33:06;;;;;;;15.50;11.90;;;5.50;99.90;;;;;;5082209;28;20500;-85
2021/03/21 04:35:44;;;;;;;18.43;12.40;;;5.50;99.90;;;;;;5083357;28;20408;-85
2021/03/21 04:38:33;;;;;;;20.30;13.60;;;5.50;99.90;;;;;;5078346;28;20400;-84
2021/03/21 04:41:01;;;;;;;21.30;13.40;;;5.50;99.90;;;;;;5079274;28;20385;-84
2021/03/21 04:43:33;;;;;;;21.77;13.37;;;5.50;99.90;;;;;;5063284;28;20437;-85
2021/03/21 04:46:04;;;;;;;17.27;12.57;;;5.50;99.90;;;;;;5061671;28;20385;-85
2021/03/21 04:48:31;;;;;;;23.23;12.40;;;5.50;99.90;;;;;;5060534;28;20939;-84
2021/03/21 04:51:04;;;;;;;21.73;12.27;;;5.50;99.90;;;;;;5067099;28;21005;-85
2021/03/21 04:53:51;;;;;;;18.57;12.70;;;5.60;99.90;;;;;;5063306;28;20408;-85
2021/03/21 04:56:25;;;;;;;19.27;11.77;;;5.60;99.90;;;;;;5063381;28;20464;-85
2021/03/21 04:58:56;;;;;;;20.03;14.20;;;5.60;99.90;;;;;;5080843;28;20396;-84
2021/03/21 05:01:42;;;;;;;19.10;12.27;;;5.60;99.90;;;;;;5063497;28;20374;-84
2021/03/21 05:04:17;;;;;;;20.00;12.50;;;5.60;99.90;;;;;;5062201;28;20357;-84
2021/03/21 05:06:46;;;;;;;16.20;12.03;;;5.60;99.90;;;;;;5064295;28;20456;-85
2021/03/21 05:09:22;;;;;;;18.27;12.43;;;5.60;99.90;;;;;;5059751;28;20480;-84
2021/03/21 05:11:57;;;;;;;21.90;13.83;;;5.60;99.90;;;;;;5064538;28;20426;-85
2021/03/21 05:14:35;;;;;;;19.23;13.20;;;5.60;99.90;;;;;;5082660;28;20394;-84
2021/03/21 05:17:07;;;;;;;18.63;12.57;;;5.60;99.90;;;;;;5076562;28;20479;-84
2021/03/21 05:19:55;;;;;;;18.03;11.47;;;5.60;99.90;;;;;;5061387;28;20390;-84
2021/03/21 05:22:45;;;;;;;23.43;13.17;;;5.60;99.90;;;;;;5058908;28;20366;-84
2021/03/21 05:25:18;;;;;;;16.30;11.27;;;5.60;99.90;;;;;;5059941;28;20432;-84
2021/03/21 05:27:54;;;;;;;15.87;11.40;;;5.60;99.90;;;;;;5063046;28;20372;-84
2021/03/21 05:30:25;;;;;;;20.90;13.77;;;5.60;99.90;;;;;;5064373;28;20441;-84
2021/03/21 05:32:52;;;;;;;20.90;12.87;;;5.60;99.90;;;;;;5061142;28;20407;-84
2021/03/21 05:35:24;;;;;;;18.13;12.80;;;5.60;99.90;;;;;;5046594;28;20396;-84
2021/03/21 05:38:22;;;;;;;22.00;14.10;;;5.60;99.90;;;;;;5062627;28;20501;-84
2021/03/21 05:41:13;;;;;;;23.00;14.03;;;5.60;99.90;;;;;;5057585;28;20418;-84
2021/03/21 05:44:13;;;;;;;18.20;12.63;;;5.70;99.90;;;;;;5077439;28;20389;-84
2021/03/21 05:46:56;;;;;;;26.40;15.83;;;5.70;99.90;;;;;;5078205;28;20447;-83
2021/03/21 05:49:40;;;;;;;21.50;16.17;;;5.70;99.90;;;;;;5077834;28;20370;-83
2021/03/21 05:52:22;;;;;;;21.37;15.60;;;5.70;99.90;;;;;;5073205;28;20433;-83
2021/03/21 05:55:25;;;;;;;25.17;17.93;;;5.70;99.90;;;;;;5060273;28;20413;-82
2021/03/21 05:58:13;;;;;;;19.83;13.90;;;5.70;99.90;;;;;;5080773;28;20406;-83
2021/03/21 06:01:16;;;;;;;25.27;17.60;;;5.70;99.90;;;;;;5065692;28;20962;-83
2021/03/21 06:03:51;;;;;;;18.80;14.90;;;5.70;99.90;;;;;;5059421;28;20986;-85
2021/03/21 06:06:35;;;;;;;21.17;14.23;;;5.70;99.90;;;;;;5075987;28;21349;-82
2021/03/21 06:09:19;;;;;;;19.10;13.53;;;5.80;99.90;;;;;;5061076;28;20931;-82
2021/03/21 06:12:06;;;;;;;17.70;14.70;;;5.80;99.90;;;;;;5075417;28;20951;-82
2021/03/21 06:14:49;;;;;;;18.53;13.13;;;5.80;99.90;;;;;;5076487;28;20446;-82
2021/03/21 06:17:53;;;;;;;19.13;13.80;;;5.90;99.90;;;;;;5063657;28;21096;-83
2021/03/21 06:20:25;;;;;;;19.23;14.90;;;5.90;99.90;;;;;;5073973;28;20423;-83
2021/03/21 06:23:24;;;;;;;18.50;13.53;;;6.00;99.90;;;;;;5062254;28;21568;-83
2021/03/21 06:26:07;;;;;;;17.97;13.70;;;5.90;99.90;;;;;;5080252;28;20840;-84
2021/03/21 06:29:22;;;;;;;19.50;14.27;;;5.90;99.90;;;;;;5077595;28;20379;-83
2021/03/21 06:31:47;;;;;;;15.97;12.17;;;5.90;99.90;;;;;;5049215;28;20421;-84
2021/03/21 06:34:44;;;;;;;13.73;11.23;;;6.00;99.90;;;;;;5062112;28;20774;-83
2021/03/21 06:37:38;;;;;;;18.13;12.20;;;6.00;99.90;;;;;;5061100;28;20198;-83
2021/03/21 06:40:40;;;;;;;15.83;11.27;;;6.00;99.90;;;;;;5060012;28;20483;-83
2021/03/21 06:43:33;;;;;;;14.30;11.47;;;6.10;99.90;;;;;;5063285;28;20407;-84
2021/03/21 06:46:15;;;;;;;19.07;9.93;;;6.10;99.90;;;;;;5061902;28;20464;-84
2021/03/21 06:48:48;;;;;;;16.40;11.73;;;6.30;99.90;;;;;;5057947;28;20421;-84
2021/03/21 06:51:38;;;;;;;13.43;10.63;;;6.30;99.90;;;;;;5063221;28;20400;-83
2021/03/21 06:54:22;;;;;;;14.20;11.07;;;6.40;99.90;;;;;;5081103;28;20408;-84
2021/03/21 06:57:15;;;;;;;14.50;11.10;;;6.40;99.90;;;;;;5060175;28;22125;-83
2021/03/21 07:00:21;;;;;;;12.20;9.70;;;6.50;99.90;;;;;;5075326;28;22590;-83
2021/03/21 07:03:19;;;;;;;12.40;10.43;;;6.40;99.90;;;;;;5066195;28;20917;-85
2021/03/21 07:06:06;;;;;;;13.67;8.90;;;6.40;99.90;;;;;;5071433;28;20404;-85
2021/03/21 07:08:58;;;;;;;11.83;8.67;;;6.40;99.90;;;;;;5083979;28;20472;-83
2021/03/21 07:12:01;;;;;;;10.57;8.33;;;6.50;99.90;;;;;;5070005;28;20518;-83
2021/03/21 07:14:30;;;;;;;13.60;8.30;;;6.50;99.90;;;;;;5072686;28;20458;-83
2021/03/21 07:17:02;;;;;;;11.20;8.90;;;6.50;99.90;;;;;;5073485;28;20403;-84
2021/03/21 07:19:31;;;;;;;12.50;8.20;;;6.60;99.90;;;;;;5089493;28;20449;-84
2021/03/21 07:22:54;;;;;;;12.93;8.30;;;6.60;99.90;;;;;;5074510;28;20443;-84
2021/03/21 07:25:44;;;;;;;10.23;6.90;;;6.60;99.90;;;;;;4991110;28;20624;-85
2021/03/21 07:28:51;;;;;;;11.70;7.90;;;6.60;99.90;;;;;;4977895;28;20412;-85
2021/03/21 07:31:38;;;;;;;8.20;6.40;;;6.70;99.90;;;;;;5052726;28;20425;-83
2021/03/21 07:34:25;;;;;;;9.77;7.40;;;6.80;99.90;;;;;;5078992;28;20425;-84
2021/03/21 07:37:19;;;;;;;11.37;6.57;;;6.70;99.90;;;;;;5077995;28;20412;-84
2021/03/21 07:40:05;;;;;;;8.03;6.40;;;6.80;99.90;;;;;;5075841;28;20486;-85
2021/03/21 07:42:41;;;;;;;11.20;6.37;;;6.80;99.90;;;;;;5077703;28;20438;-85
2021/03/21 07:45:30;;;;;;;7.20;6.27;;;6.70;99.90;;;;;;5083728;28;20408;-84
2021/03/21 07:48:24;;;;;;;9.23;5.87;;;6.60;99.90;;;;;;5070892;28;20429;-85
2021/03/21 07:51:28;;;;;;;8.50;5.90;;;6.60;99.90;;;;;;5090617;28;20456;-85
2021/03/21 07:54:03;;;;;;;3.63;3.23;;;6.40;99.90;;;;;;5074709;28;20415;-85
2021/03/21 07:56:40;;;;;;;8.23;4.37;;;6.40;99.90;;;;;;5079231;28;20394;-85
2021/03/21 07:59:13;;;;;;;7.07;3.93;;;6.50;99.90;;;;;;5089257;28;20486;-85
2021/03/21 08:01:40;;;;;;;5.00;4.30;;;6.70;99.90;;;;;;5072647;28;20396;-85
2021/03/21 08:04:15;;;;;;;7.70;4.33;;;6.90;99.90;;;;;;5072539;28;20916;-85
2021/03/21 08:06:47;;;;;;;8.07;4.40;;;6.90;99.90;;;;;;5079986;28;20381;-85
2021/03/21 08:09:22;;;;;;;6.30;5.00;;;6.80;99.90;;;;;;5093911;28;20989;-85
2021/03/21 08:12:17;;;;;;;7.90;3.90;;;6.90;99.90;;;;;;5088378;28;20500;-85
2021/03/21 08:14:53;;;;;;;4.97;3.83;;;6.90;99.90;;;;;;5066793;28;20418;-85
2021/03/21 08:17:21;;;;;;;4.30;3.30;;;7.00;99.90;;;;;;5081769;28;20408;-87
2021/03/21 08:19:51;;;;;;;3.63;2.83;;;7.00;99.90;;;;;;5080849;28;20377;-86
2021/03/21 08:22:22;;;;;;;9.53;4.80;;;7.00;99.90;;;;;;5075899;28;20390;-85
2021/03/21 08:24:52;;;;;;;6.00;4.70;;;6.90;99.90;;;;;;5083073;28;20361;-85
2021/03/21 08:27:30;;;;;;;6.83;2.90;;;6.90;99.90;;;;;;5067012;28;20410;-85
2021/03/21 08:30:12;;;;;;;5.97;3.47;;;7.00;99.90;;;;;;5080483;28;20455;-86
2021/03/21 08:32:59;;;;;;;5.60;3.00;;;6.90;99.90;;;;;;5093191;28;20412;-85
2021/03/21 08:35:34;;;;;;;6.60;4.10;;;6.90;99.90;;;;;;5094339;28;20418;-85
2021/03/21 08:38:20;;;;;;;4.27;3.07;;;6.90;99.90;;;;;;5091134;28;20389;-85
2021/03/21 08:40:47;;;;;;;8.77;3.63;;;7.00;99.90;;;;;;5084135;28;20411;-85
2021/03/21 08:43:21;;;;;;;2.50;1.97;;;7.00;99.90;;;;;;5075223;28;20393;-85
2021/03/21 08:46:10;;;;;;;5.90;2.13;;;6.90;99.90;;;;;;5079899;28;20413;-85
2021/03/21 08:48:40;;;;;;;6.73;3.10;;;6.90;99.90;;;;;;5080760;28;20391;-85
2021/03/21 08:51:19;;;;;;;2.90;2.07;;;6.90;99.90;;;;;;5064964;28;20867;-85
2021/03/21 08:54:26;;;;;;;5.93;4.50;;;6.90;99.90;;;;;;5075596;28;20369;-86
2021/03/21 08:57:32;;;;;;;5.07;2.67;;;7.20;99.90;;;;;;5032198;28;20611;-84
2021/03/21 09:00:16;;;;;;;18.17;16.33;;;;;;;;;;5024632;28;20421;-85
2021/03/21 09:02:44;;;;;;;12.93;3.60;;;7.90;99.90;;;;;;5013729;28;20770;-85
2021/03/21 09:05:13;;;;;;;7.87;3.47;;;7.80;99.90;;;;;;5045191;28;20390;-85
2021/03/21 09:07:42;;;;;;;12.63;3.73;;;7.90;99.90;;;;;;5044981;28;20354;-85
2021/03/21 09:10:11;;;;;;;4.90;3.07;;;7.90;99.90;;;;;;5015660;28;20390;-84
2021/03/21 09:12:42;;;;;;;5.20;3.30;;;7.90;99.90;;;;;;5029246;28;20464;-85
2021/03/21 09:15:18;;;;;;;10.00;4.83;;;;;;;;;;5049955;28;21179;-85
2021/03/21 09:18:00;;;;;;;13.23;6.63;;;;;;;;;;5036346;28;20426;-85
2021/03/21 09:20:26;;;;;;;37.07;21.53;;;;;;;;;;5030041;28;20435;-85
2021/03/21 09:22:53;;;;;;;8.13;3.80;;;7.90;99.90;;;;;;5012884;28;20434;-85
2021/03/21 09:25:31;;;;;;;10.00;2.87;;;7.80;99.90;;;;;;5014428;28;20977;-85
2021/03/21 09:27:59;;;;;;;14.50;4.20;;;7.90;99.90;;;;;;5052615;28;20446;-85
2021/03/21 09:30:43;;;;;;;8.10;2.33;;;7.90;99.90;;;;;;5080247;28;20430;-85
2021/03/21 09:33:16;;;;;;;13.37;3.60;;;8.20;99.90;;;;;;5087506;28;21229;-85
2021/03/21 09:35:45;;;;;;;5.37;2.80;;;8.20;99.90;;;;;;5107542;27;20426;-84
2021/03/21 09:38:17;;;;;;;33.40;20.97;;;;;;;;;;5077539;28;20421;-84
2021/03/21 09:40:46;;;;;;;5.50;2.80;;;8.30;99.90;;;;;;5074054;28;20422;-84
2021/03/21 09:43:14;;;;;;;18.33;3.63;;;8.20;99.90;;;;;;5071533;28;20418;-84
2021/03/21 09:45:50;;;;;;;5.37;2.50;;;7.80;99.90;;;;;;5071755;28;20407;-84
2021/03/21 09:48:53;;;;;;;10.23;3.20;;;7.90;99.90;;;;;;5095408;28;20378;-84
2021/03/21 09:51:42;;;;;;;7.50;2.77;;;7.70;99.90;;;;;;5088503;28;20911;-85
2021/03/21 09:54:14;;;;;;;11.77;3.00;;;7.80;99.90;;;;;;5109769;27;20346;-85
2021/03/21 09:57:04;;;;;;;8.50;3.60;;;7.90;99.90;;;;;;5083903;28;20464;-85
2021/03/21 09:59:55;;;;;;;9.77;3.70;;;7.80;99.90;;;;;;5079545;28;20386;-86
2021/03/21 10:02:42;;;;;;;9.00;2.57;;;7.80;99.90;;;;;;5075316;28;20368;-86
2021/03/21 10:05:18;;;;;;;4.83;2.20;;;8.00;99.90;;;;;;5065778;28;20398;-85
2021/03/21 10:08:00;;;;;;;5.70;1.60;;;7.90;99.90;;;;;;5109539;28;21429;-84
2021/03/21 10:10:34;;;;;;;17.47;4.00;;;7.80;99.90;;;;;;5099405;28;20418;-84
2021/03/21 10:13:00;;;;;;;12.07;4.17;;;8.00;99.90;;;;;;5070253;28;20423;-84
2021/03/21 10:15:27;;;;;;;12.60;3.87;;;8.20;99.90;;;;;;5085240;28;20452;-85
2021/03/21 10:18:00;;;;;;;16.40;4.63;;;8.00;99.90;;;;;;5058288;28;20393;-85
2021/03/21 10:21:05;;;;;;;11.93;3.87;;;8.20;99.90;;;;;;5086825;28;20405;-84
2021/03/21 10:23:56;;;;;;;23.90;6.23;;;8.30;99.90;;;;;;5087774;28;20391;-84
2021/03/21 10:26:27;;;;;;;16.57;4.67;;;8.60;99.90;;;;;;5067111;28;20461;-83
2021/03/21 10:28:56;;;;;;;9.87;4.40;;;8.70;99.90;;;;;;5073371;28;20434;-84
2021/03/21 10:31:21;;;;;;;12.53;4.67;;;8.60;99.90;;;;;;5085795;28;20400;-84
2021/03/21 10:33:49;;;;;;;22.40;4.67;;;8.60;99.90;;;;;;5070356;28;20429;-84
2021/03/21 10:36:43;;;;;;;14.73;5.67;;;8.40;99.90;;;;;;5091759;28;20200;-84
2021/03/21 10:39:23;;;;;;;11.73;4.93;;;8.30;99.90;;;;;;5083084;28;20389;-84
2021/03/21 10:42:09;;;;;;;13.30;4.27;;;8.70;99.90;;;;;;5071986;28;21322;-85
2021/03/21 10:44:35;;;;;;;14.53;4.73;;;8.70;99.90;;;;;;5071129;28;20403;-85
2021/03/21 10:47:09;;;;;;;18.53;4.80;;;8.70;99.90;;;;;;5073514;28;20929;-85
2021/03/21 10:49:51;;;;;;;6.47;2.57;;;9.00;99.90;;;;;;5087965;28;20406;-84
2021/03/21 10:52:38;;;;;;;15.97;3.77;;;9.00;99.90;;;;;;5073915;28;20397;-84
2021/03/21 10:57:49;;;;;;;14.20;5.37;;;8.90;99.90;;;;;;5089417;28;20888;-84
2021/03/21 11:00:20;;;;;;;7.50;3.90;;;9.10;99.90;;;;;;5082423;28;20380;-85
2021/03/21 11:02:50;;;;;;;27.37;7.60;;;9.30;99.90;;;;;;5072730;28;20480;-85
2021/03/21 11:05:31;;;;;;;13.33;4.50;;;9.50;99.90;;;;;;5081629;28;20415;-84
2021/03/21 11:08:35;;;;;;;14.50;5.10;;;10.20;99.90;;;;;;5104014;27;20398;-85
2021/03/21 11:11:25;;;;;;;18.60;4.57;;;10.00;99.90;;;;;;4995451;28;20508;-84
2021/03/21 11:13:52;;;;;;;21.07;8.30;;;9.90;99.90;;;;;;5027423;28;20447;-84
2021/03/21 11:16:24;;;;;;;17.97;5.20;;;10.00;99.90;;;;;;5044560;28;20528;-84
2021/03/21 11:18:53;;;;;;;23.27;6.30;;;9.80;99.90;;;;;;5043849;28;20399;-84
2021/03/21 11:21:20;;;;;;;21.50;4.73;;;9.50;99.90;;;;;;5026715;28;21095;-85
2021/03/21 11:24:00;;;;;;;22.13;6.10;;;9.50;99.90;;;;;;5030047;28;20383;-84
2021/03/21 11:26:26;;;;;;;19.63;5.63;;;9.00;99.90;;;;;;5009747;28;20501;-85
2021/03/21 11:29:07;;;;;;;15.13;5.80;;;8.80;99.90;;;;;;5031413;28;20450;-85
2021/03/21 11:31:35;;;;;;;20.00;5.50;;;8.60;99.90;;;;;;5054392;28;20375;-84
2021/03/21 11:34:22;;;;;;;20.40;4.90;;;8.70;99.90;;;;;;5035255;28;21011;-85
2021/03/21 11:37:32;;;;;;;12.10;5.60;;;8.90;99.90;;;;;;5045291;28;20438;-84
2021/03/21 11:40:11;;;;;;;22.17;3.97;;;9.50;99.90;;;;;;4996736;28;20414;-83
2021/03/21 11:42:48;;;;;;;11.47;4.90;;;9.70;99.90;;;;;;5083156;28;20458;-84
2021/03/21 11:45:20;;;;;;;13.90;4.30;;;9.90;99.90;;;;;;5089344;28;20398;-84
2021/03/21 11:47:55;;;;;;;20.23;5.20;;;10.50;99.90;;;;;;5076881;28;20445;-83
2021/03/21 11:50:28;;;;;;;19.43;5.10;;;11.30;99.90;;;;;;5069939;28;20465;-84
2021/03/21 11:52:58;;;;;;;18.17;5.80;;;11.20;99.90;;;;;;5088698;28;20479;-83
2021/03/21 11:55:29;;;;;;;10.83;4.40;;;;;;;;;;5087342;28;21693;-84
2021/03/21 11:58:02;;;;;;;19.47;5.57;;;11.00;99.90;;;;;;5069930;28;20433;-83
2021/03/21 12:00:37;;;;;;;16.83;5.00;;;12.00;99.90;;;;;;5109220;28;20402;-82
2021/03/21 12:03:20;;;;;;;10.93;4.97;;;12.40;98.70;;;;;;5073753;28;20407;-83
2021/03/21 12:06:04;;;;;;;14.73;5.67;;;12.10;95.60;;;;;;5085701;28;20623;-83
2021/03/21 12:08:41;;;;;;;15.40;3.90;;;11.20;96.30;;;;;;5089579;28;20839;-83
2021/03/21 12:11:25;;;;;;;10.30;3.60;;;10.90;96.80;;;;;;5075854;28;20591;-83
2021/03/21 12:13:53;;;;;;;13.50;4.17;;;11.20;95.70;;;;;;5081942;28;20405;-82
2021/03/21 12:16:34;;;;;;;15.53;5.30;;;11.20;98.70;;;;;;5078543;28;20505;-83
2021/03/21 12:19:00;;;;;;;16.67;4.00;;;11.10;95.90;;;;;;5076937;28;20395;-82
2021/03/21 12:21:28;;;;;;;17.37;5.47;;;11.10;96.30;;;;;;5075057;28;20563;-83
2021/03/21 12:23:57;;;;;;;19.80;4.23;;;11.10;96.50;;;;;;5043966;28;20239;-82
2021/03/21 12:26:27;;;;;;;19.13;8.10;;;;;;;;;;5085687;28;20446;-83
2021/03/21 12:28:57;;;;;;;15.50;5.20;;;10.60;97.00;;;;;;5073715;28;20430;-82
2021/03/21 12:31:49;;;;;;;5.70;3.53;;;;;;;;;;5085795;28;20478;-82
2021/03/21 12:34:33;;;;;;;18.50;5.97;;;10.50;97.50;;;;;;5065176;28;20399;-82
2021/03/21 12:37:43;;;;;;;26.87;11.33;;;10.90;96.40;;;;;;5067654;28;20395;-82
2021/03/21 12:40:16;;;;;;;19.77;6.70;;;10.80;99.90;;;;;;5007961;28;20420;-82
2021/03/21 12:42:46;;;;;;;10.80;5.83;;;10.70;97.20;;;;;;5005266;28;20405;-82
2021/03/21 12:45:14;;;;;;;14.00;4.27;;;10.80;97.10;;;;;;5023369;28;20381;-82
2021/03/21 12:47:58;;;;;;;17.10;4.57;;;10.50;96.40;;;;;;5007250;28;20436;-82
2021/03/21 12:50:38;;;;;;;19.80;5.23;;;10.20;97.50;;;;;;5020191;28;21204;-82
2021/03/21 12:53:29;;;;;;;11.60;5.20;;;10.10;98.20;;;;;;4989761;28;20456;-82
2021/03/21 12:55:58;;;;;;;11.73;3.60;;;9.90;99.90;;;;;;5010631;28;20428;-83
2021/03/21 12:58:26;;;;;;;19.97;5.40;;;10.00;99.20;;;;;;5008116;28;20392;-82
2021/03/21 13:00:53;;;;;;;14.77;5.30;;;9.60;99.90;;;;;;5020520;28;21349;-82
2021/03/21 13:03:31;;;;;;;13.70;5.03;;;10.10;99.10;;;;;;5020784;28;20387;-82
2021/03/21 13:05:58;;;;;;;16.73;5.03;;;10.70;98.70;;;;;;5007817;28;20435;-82
2021/03/21 13:08:27;;;;;;;13.93;5.10;;;10.80;97.80;;;;;;5006552;28;20904;-82
2021/03/21 13:10:55;;;;;;;20.27;4.60;;;10.80;96.60;;;;;;5010131;28;22130;-82
2021/03/21 13:13:21;;;;;;;12.67;4.87;;;10.60;96.80;;;;;;5022178;28;20419;-82
2021/03/21 13:15:48;;;;;;;17.00;5.13;;;10.60;96.80;;;;;;5013404;28;20391;-82
2021/03/21 13:18:19;;;;;;;22.67;5.43;;;10.90;97.40;;;;;;5079657;28;20464;-82
2021/03/21 13:20:51;;;;;;;18.10;5.23;;;10.60;96.70;;;;;;5063879;28;20569;-82
2021/03/21 13:23:18;;;;;;;13.33;4.53;;;10.80;96.60;;;;;;5085584;28;20396;-82
2021/03/21 13:25:45;;;;;;;21.17;5.50;;;11.00;96.10;;;;;;5081608;28;21359;-82
2021/03/21 13:28:14;;;;;;;14.90;6.30;;;10.60;96.20;;;;;;5057027;28;21214;-84
2021/03/21 13:30:44;;;;;;;16.93;4.17;;;10.80;95.70;;;;;;5063364;28;20920;-83
2021/03/21 13:33:14;;;;;;;12.20;3.87;;;11.10;95.40;;;;;;5074099;28;21223;-81
2021/03/21 13:35:40;;;;;;;18.07;4.93;;;10.90;94.70;;;;;;5071017;28;20528;-83
2021/03/21 13:38:06;;;;;;;21.27;4.90;;;10.70;95.70;;;;;;5063718;28;20479;-83
2021/03/21 13:40:37;;;;;;;18.13;4.50;;;10.90;95.30;;;;;;5053379;28;20500;-83
2021/03/21 13:43:05;;;;;;;24.60;5.30;;;10.70;95.00;;;;;;5085730;28;20345;-83
2021/03/21 13:45:35;;;;;;;10.93;4.30;;;10.50;96.20;;;;;;5064923;28;20426;-82